sensor_id;sensor_type;location;lat;lon;timestamp;P1;durP1;ratioP1;P2;durP2;ratioP2
79712;SDS011;69206;51.420;5.400;2023-04-15T00:01:54;8.87;;;4.27;;
79712;SDS011;69206;51.420;5.400;2023-04-15T00:04:22;15.70;;;5.20;;
79712;SDS011;69206;51.420;5.400;2023-04-15T00:06:51;9.33;;;4.60;;
79712;SDS011;69206;51.420;5.400;2023-04-15T00:09:18;7.33;;;4.37;;
79712;SDS011;69206;51.420;5.400;2023-04-15T00:11:44;8.00;;;3.70;;
79712;SDS011;69206;51.420;5.400;2023-04-15T00:14:10;10.37;;;5.07;;
79712;SDS011;69206;51.420;5.400;2023-04-15T00:16:36;14.40;;;4.87;;
79712;SDS011;69206;51.420;5.400;2023-04-15T00:19:02;15.33;;;4.57;;
79712;SDS011;69206;51.420;5.400;2023-04-15T00:21:27;10.53;;;4.37;;
79712;SDS011;69206;51.420;5.400;2023-04-15T00:23:53;14.27;;;4.37;;
79712;SDS011;69206;51.420;5.400;2023-04-15T00:26:19;12.27;;;4.90;;
79712;SDS011;69206;51.420;5.400;2023-04-15T00:28:45;13.70;;;4.90;;
79712;SDS011;69206;51.420;5.400;2023-04-15T00:31:10;12.00;;;4.57;;
79712;SDS011;69206;51.420;5.400;2023-04-15T00:33:36;14.70;;;5.60;;
79712;SDS011;69206;51.420;5.400;2023-04-15T00:36:02;13.50;;;5.00;;
79712;SDS011;69206;51.420;5.400;2023-04-15T00:38:28;10.80;;;4.73;;
79712;SDS011;69206;51.420;5.400;2023-04-15T00:40:54;12.60;;;5.60;;
79712;SDS011;69206;51.420;5.400;2023-04-15T00:43:20;15.87;;;5.60;;
79712;SDS011;69206;51.420;5.400;2023-04-15T00:45:46;12.07;;;4.80;;
79712;SDS011;69206;51.420;5.400;2023-04-15T00:48:11;10.77;;;5.20;;
79712;SDS011;69206;51.420;5.400;2023-04-15T00:50:37;10.87;;;5.07;;
79712;SDS011;69206;51.420;5.400;2023-04-15T00:53:03;10.20;;;5.10;;
79712;SDS011;69206;51.420;5.400;2023-04-15T00:55:28;15.90;;;6.30;;
79712;SDS011;69206;51.420;5.400;2023-04-15T00:57:55;16.47;;;5.60;;
79712;SDS011;69206;51.420;5.400;2023-04-15T01:00:21;12.17;;;6.00;;
79712;SDS011;69206;51.420;5.400;2023-04-15T01:02:47;17.60;;;6.47;;
79712;SDS011;69206;51.420;5.400;2023-04-15T01:05:13;15.73;;;6.60;;
79712;SDS011;69206;51.420;5.400;2023-04-15T01:07:41;11.83;;;6.00;;
79712;SDS011;69206;51.420;5.400;2023-04-15T01:10:07;11.87;;;6.10;;
79712;SDS011;69206;51.420;5.400;2023-04-15T01:12:33;14.63;;;7.13;;
79712;SDS011;69206;51.420;5.400;2023-04-15T01:15:00;12.97;;;7.33;;
79712;SDS011;69206;51.420;5.400;2023-04-15T01:17:26;14.60;;;6.77;;
79712;SDS011;69206;51.420;5.400;2023-04-15T01:19:52;14.43;;;6.90;;
79712;SDS011;69206;51.420;5.400;2023-04-15T01:22:20;22.13;;;7.17;;
79712;SDS011;69206;51.420;5.400;2023-04-15T01:24:48;15.93;;;7.43;;
79712;SDS011;69206;51.420;5.400;2023-04-15T01:27:19;18.27;;;7.20;;
79712;SDS011;69206;51.420;5.400;2023-04-15T01:29:45;18.97;;;7.50;;
79712;SDS011;69206;51.420;5.400;2023-04-15T01:32:11;16.50;;;8.10;;
79712;SDS011;69206;51.420;5.400;2023-04-15T01:34:36;13.43;;;6.97;;
79712;SDS011;69206;51.420;5.400;2023-04-15T01:37:01;14.13;;;7.37;;
79712;SDS011;69206;51.420;5.400;2023-04-15T01:39:27;15.97;;;7.93;;
79712;SDS011;69206;51.420;5.400;2023-04-15T01:41:52;17.90;;;8.30;;
79712;SDS011;69206;51.420;5.400;2023-04-15T01:44:17;15.27;;;8.33;;
79712;SDS011;69206;51.420;5.400;2023-04-15T01:46:43;10.83;;;7.77;;
79712;SDS011;69206;51.420;5.400;2023-04-15T01:49:08;19.93;;;8.30;;
79712;SDS011;69206;51.420;5.400;2023-04-15T01:51:34;20.60;;;8.43;;
79712;SDS011;69206;51.420;5.400;2023-04-15T01:53:59;15.77;;;8.70;;
79712;SDS011;69206;51.420;5.400;2023-04-15T01:56:24;17.13;;;8.30;;
79712;SDS011;69206;51.420;5.400;2023-04-15T01:58:50;16.13;;;8.83;;
79712;SDS011;69206;51.420;5.400;2023-04-15T02:01:15;17.43;;;9.13;;
79712;SDS011;69206;51.420;5.400;2023-04-15T02:03:43;19.33;;;8.93;;
79712;SDS011;69206;51.420;5.400;2023-04-15T02:06:09;15.13;;;8.33;;
79712;SDS011;69206;51.420;5.400;2023-04-15T02:08:35;17.37;;;8.93;;
79712;SDS011;69206;51.420;5.400;2023-04-15T02:11:00;19.40;;;9.07;;
79712;SDS011;69206;51.420;5.400;2023-04-15T02:13:26;25.80;;;9.13;;
79712;SDS011;69206;51.420;5.400;2023-04-15T02:15:51;21.63;;;9.23;;
79712;SDS011;69206;51.420;5.400;2023-04-15T02:18:18;17.67;;;9.43;;
79712;SDS011;69206;51.420;5.400;2023-04-15T02:20:44;20.97;;;10.73;;
79712;SDS011;69206;51.420;5.400;2023-04-15T02:23:11;22.77;;;9.43;;
79712;SDS011;69206;51.420;5.400;2023-04-15T02:25:37;20.83;;;9.70;;
79712;SDS011;69206;51.420;5.400;2023-04-15T02:28:05;19.70;;;10.03;;
79712;SDS011;69206;51.420;5.400;2023-04-15T02:30:31;17.60;;;9.60;;
79712;SDS011;69206;51.420;5.400;2023-04-15T02:32:57;14.90;;;9.23;;
79712;SDS011;69206;51.420;5.400;2023-04-15T02:35:24;19.33;;;10.07;;
79712;SDS011;69206;51.420;5.400;2023-04-15T02:37:50;22.30;;;10.00;;
79712;SDS011;69206;51.420;5.400;2023-04-15T02:40:15;17.57;;;9.53;;
79712;SDS011;69206;51.420;5.400;2023-04-15T02:42:41;19.13;;;9.83;;
79712;SDS011;69206;51.420;5.400;2023-04-15T02:45:08;15.90;;;9.40;;
79712;SDS011;69206;51.420;5.400;2023-04-15T02:47:34;19.37;;;10.57;;
79712;SDS011;69206;51.420;5.400;2023-04-15T02:50:01;20.47;;;10.53;;
79712;SDS011;69206;51.420;5.400;2023-04-15T02:52:31;17.10;;;10.73;;
79712;SDS011;69206;51.420;5.400;2023-04-15T02:54:56;25.30;;;10.03;;
79712;SDS011;69206;51.420;5.400;2023-04-15T02:57:25;21.17;;;10.27;;
79712;SDS011;69206;51.420;5.400;2023-04-15T02:59:53;17.67;;;10.20;;
79712;SDS011;69206;51.420;5.400;2023-04-15T03:02:18;17.73;;;10.30;;
79712;SDS011;69206;51.420;5.400;2023-04-15T03:04:43;18.80;;;10.23;;
79712;SDS011;69206;51.420;5.400;2023-04-15T03:07:09;16.97;;;9.43;;
79712;SDS011;69206;51.420;5.400;2023-04-15T03:09:34;22.03;;;10.43;;
79712;SDS011;69206;51.420;5.400;2023-04-15T03:12:00;21.10;;;10.63;;
79712;SDS011;69206;51.420;5.400;2023-04-15T03:14:26;21.30;;;10.63;;
79712;SDS011;69206;51.420;5.400;2023-04-15T03:16:51;17.17;;;9.73;;
79712;SDS011;69206;51.420;5.400;2023-04-15T03:19:16;16.50;;;10.03;;
79712;SDS011;69206;51.420;5.400;2023-04-15T03:21:42;28.37;;;10.40;;
79712;SDS011;69206;51.420;5.400;2023-04-15T03:24:07;22.03;;;10.20;;
79712;SDS011;69206;51.420;5.400;2023-04-15T03:26:32;17.10;;;10.40;;
79712;SDS011;69206;51.420;5.400;2023-04-15T03:28:58;31.20;;;11.73;;
79712;SDS011;69206;51.420;5.400;2023-04-15T03:31:23;25.27;;;10.87;;
79712;SDS011;69206;51.420;5.400;2023-04-15T03:33:49;24.87;;;10.57;;
79712;SDS011;69206;51.420;5.400;2023-04-15T03:36:14;20.87;;;10.30;;
79712;SDS011;69206;51.420;5.400;2023-04-15T03:38:40;20.63;;;10.60;;
79712;SDS011;69206;51.420;5.400;2023-04-15T03:41:06;22.80;;;10.87;;
79712;SDS011;69206;51.420;5.400;2023-04-15T03:43:31;18.67;;;11.27;;
79712;SDS011;69206;51.420;5.400;2023-04-15T03:45:57;18.53;;;9.67;;
79712;SDS011;69206;51.420;5.400;2023-04-15T03:48:22;14.83;;;10.07;;
79712;SDS011;69206;51.420;5.400;2023-04-15T03:50:48;20.97;;;10.03;;
79712;SDS011;69206;51.420;5.400;2023-04-15T03:53:13;16.83;;;10.23;;
79712;SDS011;69206;51.420;5.400;2023-04-15T03:55:39;16.53;;;10.97;;
79712;SDS011;69206;51.420;5.400;2023-04-15T03:58:05;16.37;;;9.37;;
79712;SDS011;69206;51.420;5.400;2023-04-15T04:00:30;18.63;;;10.00;;
79712;SDS011;69206;51.420;5.400;2023-04-15T04:02:56;18.97;;;10.17;;
79712;SDS011;69206;51.420;5.400;2023-04-15T04:05:21;21.17;;;9.57;;
79712;SDS011;69206;51.420;5.400;2023-04-15T04:07:47;20.00;;;11.30;;
79712;SDS011;69206;51.420;5.400;2023-04-15T04:10:12;16.70;;;10.03;;
79712;SDS011;69206;51.420;5.400;2023-04-15T04:12:37;16.37;;;10.17;;
79712;SDS011;69206;51.420;5.400;2023-04-15T04:15:03;16.40;;;10.10;;
79712;SDS011;69206;51.420;5.400;2023-04-15T04:17:29;27.43;;;10.63;;
79712;SDS011;69206;51.420;5.400;2023-04-15T04:19:54;20.77;;;10.17;;
79712;SDS011;69206;51.420;5.400;2023-04-15T04:22:23;19.50;;;9.77;;
79712;SDS011;69206;51.420;5.400;2023-04-15T04:24:48;23.77;;;11.00;;
79712;SDS011;69206;51.420;5.400;2023-04-15T04:27:14;19.00;;;10.17;;
79712;SDS011;69206;51.420;5.400;2023-04-15T04:29:40;24.50;;;10.47;;
79712;SDS011;69206;51.420;5.400;2023-04-15T04:32:05;15.80;;;9.30;;
79712;SDS011;69206;51.420;5.400;2023-04-15T04:34:30;17.80;;;10.17;;
79712;SDS011;69206;51.420;5.400;2023-04-15T04:36:56;21.87;;;11.00;;
79712;SDS011;69206;51.420;5.400;2023-04-15T04:39:22;21.40;;;10.23;;
79712;SDS011;69206;51.420;5.400;2023-04-15T04:41:47;16.20;;;10.37;;
79712;SDS011;69206;51.420;5.400;2023-04-15T04:44:13;20.27;;;10.33;;
79712;SDS011;69206;51.420;5.400;2023-04-15T04:46:39;18.10;;;10.13;;
79712;SDS011;69206;51.420;5.400;2023-04-15T04:49:04;20.27;;;10.90;;
79712;SDS011;69206;51.420;5.400;2023-04-15T04:51:30;19.90;;;10.07;;
79712;SDS011;69206;51.420;5.400;2023-04-15T04:53:55;16.43;;;10.10;;
79712;SDS011;69206;51.420;5.400;2023-04-15T04:56:21;17.63;;;10.47;;
79712;SDS011;69206;51.420;5.400;2023-04-15T04:58:46;23.70;;;10.77;;
79712;SDS011;69206;51.420;5.400;2023-04-15T05:01:12;17.20;;;10.20;;
79712;SDS011;69206;51.420;5.400;2023-04-15T05:03:37;20.93;;;10.83;;
79712;SDS011;69206;51.420;5.400;2023-04-15T05:06:03;17.57;;;11.03;;
79712;SDS011;69206;51.420;5.400;2023-04-15T05:08:30;18.50;;;10.80;;
79712;SDS011;69206;51.420;5.400;2023-04-15T05:10:55;17.20;;;10.07;;
79712;SDS011;69206;51.420;5.400;2023-04-15T05:13:21;22.30;;;11.60;;
79712;SDS011;69206;51.420;5.400;2023-04-15T05:15:46;18.03;;;9.90;;
79712;SDS011;69206;51.420;5.400;2023-04-15T05:18:11;19.40;;;10.23;;
79712;SDS011;69206;51.420;5.400;2023-04-15T05:20:37;17.53;;;9.50;;
79712;SDS011;69206;51.420;5.400;2023-04-15T05:23:02;24.07;;;10.70;;
79712;SDS011;69206;51.420;5.400;2023-04-15T05:25:28;18.60;;;10.67;;
79712;SDS011;69206;51.420;5.400;2023-04-15T05:27:53;16.53;;;10.33;;
79712;SDS011;69206;51.420;5.400;2023-04-15T05:30:19;22.97;;;10.97;;
79712;SDS011;69206;51.420;5.400;2023-04-15T05:32:45;22.67;;;10.87;;
79712;SDS011;69206;51.420;5.400;2023-04-15T05:35:10;19.43;;;10.20;;
79712;SDS011;69206;51.420;5.400;2023-04-15T05:37:36;15.93;;;10.90;;
79712;SDS011;69206;51.420;5.400;2023-04-15T05:40:01;20.87;;;10.80;;
79712;SDS011;69206;51.420;5.400;2023-04-15T05:42:28;16.53;;;11.10;;
79712;SDS011;69206;51.420;5.400;2023-04-15T05:44:54;18.23;;;11.23;;
79712;SDS011;69206;51.420;5.400;2023-04-15T05:47:19;17.20;;;10.47;;
79712;SDS011;69206;51.420;5.400;2023-04-15T05:49:45;16.90;;;10.30;;
79712;SDS011;69206;51.420;5.400;2023-04-15T05:52:10;23.67;;;10.90;;
79712;SDS011;69206;51.420;5.400;2023-04-15T05:54:35;22.60;;;10.87;;
79712;SDS011;69206;51.420;5.400;2023-04-15T05:57:01;15.97;;;10.40;;
79712;SDS011;69206;51.420;5.400;2023-04-15T05:59:26;18.97;;;10.33;;
79712;SDS011;69206;51.420;5.400;2023-04-15T06:01:52;20.70;;;10.97;;
79712;SDS011;69206;51.420;5.400;2023-04-15T06:04:18;16.40;;;10.67;;
79712;SDS011;69206;51.420;5.400;2023-04-15T06:06:43;17.83;;;11.03;;
79712;SDS011;69206;51.420;5.400;2023-04-15T06:09:09;18.20;;;11.37;;
79712;SDS011;69206;51.420;5.400;2023-04-15T06:11:34;19.63;;;11.30;;
79712;SDS011;69206;51.420;5.400;2023-04-15T06:13:59;20.13;;;11.27;;
79712;SDS011;69206;51.420;5.400;2023-04-15T06:16:25;19.33;;;11.23;;
79712;SDS011;69206;51.420;5.400;2023-04-15T06:18:51;19.07;;;11.63;;
79712;SDS011;69206;51.420;5.400;2023-04-15T06:21:16;20.73;;;11.23;;
79712;SDS011;69206;51.420;5.400;2023-04-15T06:23:42;19.10;;;11.50;;
79712;SDS011;69206;51.420;5.400;2023-04-15T06:26:07;21.47;;;12.23;;
79712;SDS011;69206;51.420;5.400;2023-04-15T06:28:32;18.10;;;11.60;;
79712;SDS011;69206;51.420;5.400;2023-04-15T06:30:58;20.40;;;11.33;;
79712;SDS011;69206;51.420;5.400;2023-04-15T06:33:24;25.47;;;11.60;;
79712;SDS011;69206;51.420;5.400;2023-04-15T06:35:49;17.52;;;10.63;;
79712;SDS011;69206;51.420;5.400;2023-04-15T06:38:15;21.33;;;10.30;;
79712;SDS011;69206;51.420;5.400;2023-04-15T06:40:40;16.67;;;10.65;;
79712;SDS011;69206;51.420;5.400;2023-04-15T06:43:06;17.55;;;10.20;;
79712;SDS011;69206;51.420;5.400;2023-04-15T06:45:32;17.38;;;9.80;;
79712;SDS011;69206;51.420;5.400;2023-04-15T06:47:57;15.82;;;9.70;;
79712;SDS011;69206;51.420;5.400;2023-04-15T06:50:22;15.00;;;9.60;;
79712;SDS011;69206;51.420;5.400;2023-04-15T06:52:48;15.65;;;10.15;;
79712;SDS011;69206;51.420;5.400;2023-04-15T06:55:13;19.10;;;10.07;;
79712;SDS011;69206;51.420;5.400;2023-04-15T06:57:39;17.50;;;9.88;;
79712;SDS011;69206;51.420;5.400;2023-04-15T07:00:04;14.93;;;9.02;;
79712;SDS011;69206;51.420;5.400;2023-04-15T07:02:31;16.10;;;9.25;;
79712;SDS011;69206;51.420;5.400;2023-04-15T07:04:57;14.88;;;9.55;;
79712;SDS011;69206;51.420;5.400;2023-04-15T07:07:22;15.80;;;9.18;;
79712;SDS011;69206;51.420;5.400;2023-04-15T07:12:48;16.88;;;9.52;;
79712;SDS011;69206;51.420;5.400;2023-04-15T07:15:15;13.60;;;9.23;;
79712;SDS011;69206;51.420;5.400;2023-04-15T07:17:41;12.57;;;8.82;;
79712;SDS011;69206;51.420;5.400;2023-04-15T07:20:07;11.77;;;8.48;;
79712;SDS011;69206;51.420;5.400;2023-04-15T07:22:33;19.88;;;9.50;;
79712;SDS011;69206;51.420;5.400;2023-04-15T07:24:59;12.38;;;8.30;;
79712;SDS011;69206;51.420;5.400;2023-04-15T07:27:25;12.65;;;8.68;;
79712;SDS011;69206;51.420;5.400;2023-04-15T07:29:51;13.82;;;8.00;;
79712;SDS011;69206;51.420;5.400;2023-04-15T07:32:17;13.18;;;7.82;;
79712;SDS011;69206;51.420;5.400;2023-04-15T07:34:42;10.95;;;7.95;;
79712;SDS011;69206;51.420;5.400;2023-04-15T07:37:08;10.43;;;7.97;;
79712;SDS011;69206;51.420;5.400;2023-04-15T07:39:34;11.23;;;7.82;;
79712;SDS011;69206;51.420;5.400;2023-04-15T07:41:59;11.32;;;7.93;;
79712;SDS011;69206;51.420;5.400;2023-04-15T07:44:26;10.00;;;7.10;;
79712;SDS011;69206;51.420;5.400;2023-04-15T07:46:51;14.13;;;7.68;;
79712;SDS011;69206;51.420;5.400;2023-04-15T07:49:17;11.70;;;6.25;;
79712;SDS011;69206;51.420;5.400;2023-04-15T07:51:43;12.30;;;6.78;;
79712;SDS011;69206;51.420;5.400;2023-04-15T07:54:09;11.45;;;7.28;;
79712;SDS011;69206;51.420;5.400;2023-04-15T07:56:34;9.95;;;7.05;;
79712;SDS011;69206;51.420;5.400;2023-04-15T07:59:00;9.43;;;5.85;;
79712;SDS011;69206;51.420;5.400;2023-04-15T08:01:29;9.82;;;6.03;;
79712;SDS011;69206;51.420;5.400;2023-04-15T08:03:54;6.60;;;5.20;;
79712;SDS011;69206;51.420;5.400;2023-04-15T08:06:21;7.78;;;5.50;;
79712;SDS011;69206;51.420;5.400;2023-04-15T08:08:46;8.63;;;5.75;;
79712;SDS011;69206;51.420;5.400;2023-04-15T08:11:12;8.95;;;5.50;;
79712;SDS011;69206;51.420;5.400;2023-04-15T08:13:38;7.68;;;5.65;;
79712;SDS011;69206;51.420;5.400;2023-04-15T08:16:16;7.63;;;5.70;;
79712;SDS011;69206;51.420;5.400;2023-04-15T08:18:46;9.80;;;6.13;;
79712;SDS011;69206;51.420;5.400;2023-04-15T08:21:11;9.35;;;5.45;;
79712;SDS011;69206;51.420;5.400;2023-04-15T08:23:37;12.40;;;5.65;;
79712;SDS011;69206;51.420;5.400;2023-04-15T08:26:03;12.00;;;5.18;;
79712;SDS011;69206;51.420;5.400;2023-04-15T08:28:28;9.57;;;6.75;;
79712;SDS011;69206;51.420;5.400;2023-04-15T08:30:54;10.73;;;6.75;;
79712;SDS011;69206;51.420;5.400;2023-04-15T08:33:19;12.48;;;6.75;;
79712;SDS011;69206;51.420;5.400;2023-04-15T08:35:45;10.48;;;6.82;;
79712;SDS011;69206;51.420;5.400;2023-04-15T08:38:11;9.73;;;7.43;;
79712;SDS011;69206;51.420;5.400;2023-04-15T08:40:43;10.25;;;7.47;;
79712;SDS011;69206;51.420;5.400;2023-04-15T08:43:11;8.43;;;7.05;;
79712;SDS011;69206;51.420;5.400;2023-04-15T08:45:39;10.23;;;6.30;;
79712;SDS011;69206;51.420;5.400;2023-04-15T08:48:05;8.65;;;5.68;;
79712;SDS011;69206;51.420;5.400;2023-04-15T08:50:33;7.35;;;5.60;;
79712;SDS011;69206;51.420;5.400;2023-04-15T08:52:59;7.72;;;5.35;;
79712;SDS011;69206;51.420;5.400;2023-04-15T08:55:26;7.53;;;5.53;;
79712;SDS011;69206;51.420;5.400;2023-04-15T08:57:54;10.13;;;5.25;;
79712;SDS011;69206;51.420;5.400;2023-04-15T09:00:20;8.57;;;4.65;;
79712;SDS011;69206;51.420;5.400;2023-04-15T09:02:46;9.27;;;5.72;;
79712;SDS011;69206;51.420;5.400;2023-04-15T09:05:12;7.80;;;5.05;;
79712;SDS011;69206;51.420;5.400;2023-04-15T09:07:37;7.57;;;4.63;;
79712;SDS011;69206;51.420;5.400;2023-04-15T09:10:03;7.03;;;4.63;;
79712;SDS011;69206;51.420;5.400;2023-04-15T09:12:29;5.65;;;4.40;;
79712;SDS011;69206;51.420;5.400;2023-04-15T09:14:55;6.35;;;4.55;;
79712;SDS011;69206;51.420;5.400;2023-04-15T09:17:21;8.15;;;4.70;;
79712;SDS011;69206;51.420;5.400;2023-04-15T09:19:48;7.90;;;4.63;;
79712;SDS011;69206;51.420;5.400;2023-04-15T09:22:21;8.52;;;3.83;;
79712;SDS011;69206;51.420;5.400;2023-04-15T09:24:47;5.97;;;3.90;;
79712;SDS011;69206;51.420;5.400;2023-04-15T09:27:14;6.72;;;4.32;;
79712;SDS011;69206;51.420;5.400;2023-04-15T09:29:40;6.85;;;4.15;;
79712;SDS011;69206;51.420;5.400;2023-04-15T09:32:12;6.28;;;3.75;;
79712;SDS011;69206;51.420;5.400;2023-04-15T09:34:39;6.82;;;3.65;;
79712;SDS011;69206;51.420;5.400;2023-04-15T09:37:05;8.45;;;3.83;;
79712;SDS011;69206;51.420;5.400;2023-04-15T09:39:50;6.60;;;3.72;;
79712;SDS011;69206;51.420;5.400;2023-04-15T09:42:16;12.20;;;4.07;;
79712;SDS011;69206;51.420;5.400;2023-04-15T09:44:48;6.85;;;4.60;;
79712;SDS011;69206;51.420;5.400;2023-04-15T09:47:27;4.10;;;3.15;;
79712;SDS011;69206;51.420;5.400;2023-04-15T09:49:59;4.50;;;2.55;;
79712;SDS011;69206;51.420;5.400;2023-04-15T09:52:25;2.70;;;2.42;;
79712;SDS011;69206;51.420;5.400;2023-04-15T09:54:54;3.92;;;2.92;;
79712;SDS011;69206;51.420;5.400;2023-04-15T09:57:21;2.63;;;2.40;;
79712;SDS011;69206;51.420;5.400;2023-04-15T09:59:47;3.72;;;2.80;;
79712;SDS011;69206;51.420;5.400;2023-04-15T10:02:13;3.38;;;2.97;;
79712;SDS011;69206;51.420;5.400;2023-04-15T10:04:39;3.08;;;2.35;;
79712;SDS011;69206;51.420;5.400;2023-04-15T10:07:06;4.45;;;3.15;;
79712;SDS011;69206;51.420;5.400;2023-04-15T10:09:34;5.10;;;3.40;;
79712;SDS011;69206;51.420;5.400;2023-04-15T10:12:00;4.63;;;3.30;;
79712;SDS011;69206;51.420;5.400;2023-04-15T10:14:29;5.90;;;3.92;;
79712;SDS011;69206;51.420;5.400;2023-04-15T10:16:57;5.13;;;3.55;;
79712;SDS011;69206;51.420;5.400;2023-04-15T10:19:29;5.32;;;3.45;;
79712;SDS011;69206;51.420;5.400;2023-04-15T10:21:57;6.22;;;4.05;;
79712;SDS011;69206;51.420;5.400;2023-04-15T10:24:23;4.43;;;3.55;;
79712;SDS011;69206;51.420;5.400;2023-04-15T10:26:50;5.70;;;4.10;;
79712;SDS011;69206;51.420;5.400;2023-04-15T10:29:16;5.97;;;3.80;;
79712;SDS011;69206;51.420;5.400;2023-04-15T10:31:42;4.20;;;3.28;;
79712;SDS011;69206;51.420;5.400;2023-04-15T10:34:08;4.10;;;3.10;;
79712;SDS011;69206;51.420;5.400;2023-04-15T10:36:34;5.72;;;3.17;;
79712;SDS011;69206;51.420;5.400;2023-04-15T10:39:00;6.95;;;3.03;;
79712;SDS011;69206;51.420;5.400;2023-04-15T10:41:26;4.47;;;2.92;;
79712;SDS011;69206;51.420;5.400;2023-04-15T10:44:01;3.08;;;2.78;;
79712;SDS011;69206;51.420;5.400;2023-04-15T10:46:41;4.60;;;2.83;;
79712;SDS011;69206;51.420;5.400;2023-04-15T10:49:12;4.43;;;2.70;;
79712;SDS011;69206;51.420;5.400;2023-04-15T10:51:42;3.75;;;2.92;;
79712;SDS011;69206;51.420;5.400;2023-04-15T10:54:14;4.28;;;2.28;;
79712;SDS011;69206;51.420;5.400;2023-04-15T10:56:42;4.47;;;2.65;;
79712;SDS011;69206;51.420;5.400;2023-04-15T10:59:09;4.28;;;2.55;;
79712;SDS011;69206;51.420;5.400;2023-04-15T11:01:50;3.85;;;2.88;;
79712;SDS011;69206;51.420;5.400;2023-04-15T11:07:32;4.18;;;2.88;;
79712;SDS011;69206;51.420;5.400;2023-04-15T11:10:01;4.05;;;2.38;;
79712;SDS011;69206;51.420;5.400;2023-04-15T11:12:34;4.38;;;2.25;;
79712;SDS011;69206;51.420;5.400;2023-04-15T11:20:44;4.38;;;1.75;;
79712;SDS011;69206;51.420;5.400;2023-04-15T11:23:11;4.20;;;1.73;;
79712;SDS011;69206;51.420;5.400;2023-04-15T11:25:39;2.63;;;2.08;;
79712;SDS011;69206;51.420;5.400;2023-04-15T11:28:05;3.70;;;2.78;;
79712;SDS011;69206;51.420;5.400;2023-04-15T11:30:34;6.75;;;2.92;;
79712;SDS011;69206;51.420;5.400;2023-04-15T11:33:05;4.40;;;3.13;;
79712;SDS011;69206;51.420;5.400;2023-04-15T11:35:32;4.65;;;2.50;;
79712;SDS011;69206;51.420;5.400;2023-04-15T11:38:01;5.25;;;2.40;;
79712;SDS011;69206;51.420;5.400;2023-04-15T11:40:38;3.90;;;2.25;;
79712;SDS011;69206;51.420;5.400;2023-04-15T11:43:05;2.90;;;2.60;;
79712;SDS011;69206;51.420;5.400;2023-04-15T11:45:34;3.67;;;2.65;;
79712;SDS011;69206;51.420;5.400;2023-04-15T11:50:32;3.42;;;2.90;;
79712;SDS011;69206;51.420;5.400;2023-04-15T11:52:59;3.03;;;2.70;;
79712;SDS011;69206;51.420;5.400;2023-04-15T11:55:30;3.75;;;2.65;;
79712;SDS011;69206;51.420;5.400;2023-04-15T11:58:08;4.20;;;2.40;;
79712;SDS011;69206;51.420;5.400;2023-04-15T12:00:34;4.20;;;2.67;;
79712;SDS011;69206;51.420;5.400;2023-04-15T12:13:58;4.63;;;1.80;;
79712;SDS011;69206;51.420;5.400;2023-04-15T12:16:27;2.75;;;2.17;;
79712;SDS011;69206;51.420;5.400;2023-04-15T12:18:54;3.47;;;2.58;;
79712;SDS011;69206;51.420;5.400;2023-04-15T12:21:22;3.97;;;3.03;;
79712;SDS011;69206;51.420;5.400;2023-04-15T12:23:49;5.57;;;3.13;;
79712;SDS011;69206;51.420;5.400;2023-04-15T12:26:16;4.78;;;3.00;;
79712;SDS011;69206;51.420;5.400;2023-04-15T12:28:43;2.95;;;2.65;;
79712;SDS011;69206;51.420;5.400;2023-04-15T12:31:09;4.30;;;2.80;;
79712;SDS011;69206;51.420;5.400;2023-04-15T12:33:36;4.38;;;2.42;;
79712;SDS011;69206;51.420;5.400;2023-04-15T12:36:02;2.35;;;1.92;;
79712;SDS011;69206;51.420;5.400;2023-04-15T12:38:31;3.38;;;2.25;;
79712;SDS011;69206;51.420;5.400;2023-04-15T12:40:57;4.20;;;2.20;;
79712;SDS011;69206;51.420;5.400;2023-04-15T12:43:22;6.18;;;2.45;;
79712;SDS011;69206;51.420;5.400;2023-04-15T12:45:48;4.38;;;2.97;;
79712;SDS011;69206;51.420;5.400;2023-04-15T12:48:13;4.72;;;2.42;;
79712;SDS011;69206;51.420;5.400;2023-04-15T12:50:38;3.75;;;2.13;;
79712;SDS011;69206;51.420;5.400;2023-04-15T12:53:04;4.35;;;2.30;;
79712;SDS011;69206;51.420;5.400;2023-04-15T12:55:29;11.88;;;2.58;;
79712;SDS011;69206;51.420;5.400;2023-04-15T12:57:56;4.18;;;1.90;;
79712;SDS011;69206;51.420;5.400;2023-04-15T13:00:21;4.35;;;2.22;;
79712;SDS011;69206;51.420;5.400;2023-04-15T13:02:47;3.80;;;2.08;;
79712;SDS011;69206;51.420;5.400;2023-04-15T13:05:13;2.40;;;1.90;;
79712;SDS011;69206;51.420;5.400;2023-04-15T13:07:39;2.08;;;1.55;;
79712;SDS011;69206;51.420;5.400;2023-04-15T13:10:08;2.05;;;1.63;;
79712;SDS011;69206;51.420;5.400;2023-04-15T13:12:33;4.72;;;1.90;;
79712;SDS011;69206;51.420;5.400;2023-04-15T13:15:01;5.00;;;2.03;;
79712;SDS011;69206;51.420;5.400;2023-04-15T13:17:28;2.83;;;2.08;;
79712;SDS011;69206;51.420;5.400;2023-04-15T13:19:53;3.35;;;2.08;;
79712;SDS011;69206;51.420;5.400;2023-04-15T13:25:16;1.85;;;1.67;;
79712;SDS011;69206;51.420;5.400;2023-04-15T13:27:41;1.77;;;1.67;;
79712;SDS011;69206;51.420;5.400;2023-04-15T13:30:07;2.75;;;1.75;;
79712;SDS011;69206;51.420;5.400;2023-04-15T13:32:33;3.40;;;1.95;;
79712;SDS011;69206;51.420;5.400;2023-04-15T13:34:58;2.63;;;1.75;;
79712;SDS011;69206;51.420;5.400;2023-04-15T13:37:27;3.40;;;1.77;;
79712;SDS011;69206;51.420;5.400;2023-04-15T13:39:53;3.40;;;1.80;;
79712;SDS011;69206;51.420;5.400;2023-04-15T13:42:20;1.55;;;1.45;;
79712;SDS011;69206;51.420;5.400;2023-04-15T13:44:46;3.65;;;1.75;;
79712;SDS011;69206;51.420;5.400;2023-04-15T13:47:11;2.35;;;1.73;;
79712;SDS011;69206;51.420;5.400;2023-04-15T13:49:38;3.95;;;1.88;;
79712;SDS011;69206;51.420;5.400;2023-04-15T13:52:04;2.30;;;1.67;;
79712;SDS011;69206;51.420;5.400;2023-04-15T13:54:30;4.38;;;1.90;;
79712;SDS011;69206;51.420;5.400;2023-04-15T13:56:55;2.22;;;2.00;;
79712;SDS011;69206;51.420;5.400;2023-04-15T13:59:22;3.65;;;1.70;;
79712;SDS011;69206;51.420;5.400;2023-04-15T14:01:47;5.38;;;2.05;;
79712;SDS011;69206;51.420;5.400;2023-04-15T14:04:13;4.40;;;1.90;;
79712;SDS011;69206;51.420;5.400;2023-04-15T14:06:38;4.05;;;1.75;;
79712;SDS011;69206;51.420;5.400;2023-04-15T14:09:04;3.15;;;2.00;;
79712;SDS011;69206;51.420;5.400;2023-04-15T14:11:30;4.72;;;2.20;;
79712;SDS011;69206;51.420;5.400;2023-04-15T14:13:55;4.15;;;1.80;;
79712;SDS011;69206;51.420;5.400;2023-04-15T14:16:21;1.75;;;1.60;;
79712;SDS011;69206;51.420;5.400;2023-04-15T14:18:46;1.55;;;1.40;;
79712;SDS011;69206;51.420;5.400;2023-04-15T14:21:11;2.50;;;1.45;;
79712;SDS011;69206;51.420;5.400;2023-04-15T14:23:37;3.40;;;1.52;;
79712;SDS011;69206;51.420;5.400;2023-04-15T14:26:02;4.53;;;1.85;;
79712;SDS011;69206;51.420;5.400;2023-04-15T14:28:28;5.28;;;1.70;;
79712;SDS011;69206;51.420;5.400;2023-04-15T14:30:53;2.67;;;1.50;;
79712;SDS011;69206;51.420;5.400;2023-04-15T14:33:19;2.95;;;1.58;;
79712;SDS011;69206;51.420;5.400;2023-04-15T14:35:44;1.40;;;1.20;;
79712;SDS011;69206;51.420;5.400;2023-04-15T14:38:10;2.67;;;1.45;;
79712;SDS011;69206;51.420;5.400;2023-04-15T14:40:35;2.60;;;1.35;;
79712;SDS011;69206;51.420;5.400;2023-04-15T14:43:02;2.58;;;1.50;;
79712;SDS011;69206;51.420;5.400;2023-04-15T14:45:28;4.22;;;1.30;;
79712;SDS011;69206;51.420;5.400;2023-04-15T14:47:54;1.88;;;1.38;;
79712;SDS011;69206;51.420;5.400;2023-04-15T14:50:19;2.78;;;1.30;;
79712;SDS011;69206;51.420;5.400;2023-04-15T14:52:45;4.55;;;1.48;;
79712;SDS011;69206;51.420;5.400;2023-04-15T14:55:11;3.00;;;1.42;;
79712;SDS011;69206;51.420;5.400;2023-04-15T14:57:37;1.55;;;1.25;;
79712;SDS011;69206;51.420;5.400;2023-04-15T15:00:03;3.08;;;1.40;;